Charleston, WV

1:35 AM EST on February 09, 2016 (GMT -0500)
Edgewood | | Change Station
CLOSE
Current Station
Personal Weather Station
Location: Charleston, WV
Elevation: 807 ft
Nearby Weather Stations
Active Advisory: Winter Weather Advisory

Elev 807 ft 38.37 °N, 81.64 °W | Updated 6 seconds ago

Overcast
Overcast
33.3 °F
Feels Like 33 °F
N
0.0
Wind Variable Wind from NW
Gusts 0.0 mph

Today
High -- | Low -- °F
--% Chance of Precip.
Yesterday
High -- | Low -- °F
Precip. -- in
Pressure 29.64 in
Visibility 1.0 miles
Clouds Few 1700 ft
Mostly Cloudy 2700 ft
Overcast 3200 ft
Windchill 33 °F
Dew Point 31 °F
Humidity 92%
Rainfall 0.00 in
Snow Depth Not available.
7:24 AM 5:58 PM
New Moon, 1% visible
SPECI KCRW 090608Z 22009KT 1SM -SN BR FEW017 BKN027 OVC032 01/M02 A2964 RMK AO2 P0000 T00061017 RVRNO
Pressure 29.64 in
Visibility 1.0 miles
Clouds Few 1700 ft
Mostly Cloudy 2700 ft
Overcast 3200 ft
Windchill 33 °F
Dew Point 31 °F
Humidity 92%
Rainfall 0.00 in
Snow Depth Not available.
7:24 AM 5:58 PM
New Moon, 1% visible
SPECI KCRW 090608Z 22009KT 1SM -SN BR FEW017 BKN027 OVC032 01/M02 A2964 RMK AO2 P0000 T00061017 RVRNO

10-Day Weather Forecast

Almanac

Astronomy

Feb. 09, 2016 Rise Set
Actual Time
Civil Twilight
Nautical Twilight
Astronomical Twilight
Moon
Length of Visible Light
Length of Day
Tomorrow will be .
, % of the Moon is Illuminated

Today's Extremes

State Highs State Lows

Community

WunderPhotos

Upload Photos

1,891,571 photos uploaded!

WunderBlog® & News

Nearby

Air Quality

  Air Quality AQ Index Pollutant
Not available.

Snow Depth

Station Depth Elevation

Earthquake Activity

City Distance Mag. Time & Date
Minimum magnitude displayed is 2.5.

Coastal Water Temperatures

Place Temperature

Stations

Nearby Weather Stations

Station Location Temp. Windchill Dew Point Humidity Wind Precip. Elev Updated Type
                   

Watches & Warnings

Winter Weather Advisory
Issued: 9:43 PM EST Feb. 8, 2016 – National Weather Service

... Winter Weather Advisory remains in effect until 7 am EST
Wednesday...

* hazard types... snow.

* Snow accumulations... snow accumulation of 2 to 6 inches over a
36 hour period. Some settling and melting of fallen snow is
expected to occur during the advisory period.

* Timing... snow showers will be around for the mid week period
with varying intensity.

* Impacts... travel may be difficult at times. Visibilities will
be limited at times.

Precautionary/preparedness actions...

A Winter Weather Advisory for snow means that periods of snow
will cause primarily travel difficulties. Be prepared for snow
covered roads and limited visibilities... and use caution while
driving.